Time;durP1;ratioP1;P1;durP2;ratioP2;P2;SDS_P1;SDS_P2;PMS_P1;PMS_P2;Temp;Humidity;BMP_temperature;BMP_pressure;BME280_temperature;BME280_humidity;BME280_pressure;Samples;Min_cycle;Max_cycle;Signal;HPM_P1;HPM_P2
2023/05/30 00:01:51;;;;;;;4.55;3.00;;;;;;;16.36;50.30;100449.49;1801012;79;21181;-58
2023/05/30 00:04:58;;;;;;;5.72;2.80;;;;;;;16.35;50.31;100445.04;1776820;79;21339;-58
2023/05/30 00:08:06;;;;;;;7.53;2.77;;;;;;;16.35;50.37;100442.27;1768146;80;21339;-58
2023/05/30 00:11:18;;;;;;;7.25;2.80;;;;;;;16.36;50.45;100437.61;1769363;80;21884;-59
2023/05/30 00:14:23;;;;;;;5.87;3.02;;;;;;;16.36;50.45;100437.06;1768208;80;21423;-58
2023/05/30 00:17:28;;;;;;;5.22;2.70;;;;;;;16.36;50.41;100438.44;1765722;79;21410;-59
2023/05/30 00:20:35;;;;;;;7.37;2.90;;;;;;;16.36;50.43;100433.47;1737345;82;21434;-58
2023/05/30 00:23:45;;;;;;;6.47;2.87;;;;;;;16.35;50.42;100428.46;1745918;82;21196;-58
2023/05/30 00:26:51;;;;;;;5.72;2.83;;;;;;;16.34;50.39;100430.92;1744944;81;21212;-59
2023/05/30 00:29:57;;;;;;;7.10;2.70;;;;;;;16.31;50.40;100427.20;1746490;81;21346;-58
2023/05/30 00:33:03;;;;;;;5.20;2.60;;;;;;;16.30;50.43;100432.91;1745246;82;21212;-58
2023/05/30 00:36:12;;;;;;;9.93;3.67;;;;;;;16.25;50.45;100425.26;1745018;82;21267;-59
2023/05/30 00:39:22;;;;;;;4.58;2.60;;;;;;;16.24;50.50;100420.80;1744302;82;21222;-57
2023/05/30 00:42:28;;;;;;;6.95;2.87;;;;;;;16.22;50.54;100421.54;1746263;81;21350;-59
2023/05/30 00:45:35;;;;;;;9.50;2.83;;;;;;;16.21;50.57;100425.89;1794787;79;21358;-59
2023/05/30 00:48:40;;;;;;;4.50;2.70;;;;;;;16.20;50.68;100418.16;1793281;79;21379;-59
2023/05/30 00:51:45;;;;;;;4.75;2.85;;;;;;;16.22;50.71;100422.09;1789384;79;21847;-59
2023/05/30 00:54:50;;;;;;;4.75;2.60;;;;;;;16.24;50.76;100424.95;1768553;80;21193;-58
2023/05/30 00:57:56;;;;;;;4.83;2.80;;;;;;;16.27;50.78;100420.37;1769338;79;21349;-59
2023/05/30 01:01:03;;;;;;;7.25;2.55;;;;;;;16.29;50.77;100417.41;1768793;79;21367;-58
2023/05/30 01:04:10;;;;;;;5.85;2.80;;;;;;;16.30;50.78;100421.86;1768166;80;21358;-59
2023/05/30 01:07:14;;;;;;;9.23;2.87;;;;;;;16.31;50.83;100420.30;1769138;80;21440;-59
2023/05/30 01:10:21;;;;;;;5.60;2.70;;;;;;;16.32;50.84;100423.36;1719523;83;21371;-58
2023/05/30 01:13:49;;;;;;;5.28;2.60;;;;;;;16.32;50.78;100425.27;1756818;80;21320;-59
2023/05/30 01:17:03;;;;;;;5.35;3.08;;;;;;;16.32;50.83;100423.88;1768409;80;21947;-57
2023/05/30 01:20:17;;;;;;;5.12;2.60;;;;;;;16.34;50.90;100427.30;1768466;80;21328;-57
2023/05/30 01:23:35;;;;;;;4.15;2.52;;;;;;;16.37;50.88;100427.73;1768055;81;21883;-57
2023/05/30 01:27:01;;;;;;;9.65;3.25;;;;;;;16.39;50.85;100427.52;1770942;79;21962;-59
2023/05/30 01:30:08;;;;;;;4.97;2.80;;;;;;;16.37;50.78;100429.11;1769606;79;21344;-58
2023/05/30 01:33:15;;;;;;;5.15;2.98;;;;;;;16.37;50.79;100436.54;1768401;80;21860;-58
2023/05/30 01:36:21;;;;;;;5.40;2.72;;;;;;;16.36;50.85;100428.77;1768903;79;21347;-57
2023/05/30 01:39:28;;;;;;;5.47;2.72;;;;;;;16.38;50.87;100432.18;1768084;80;21355;-58
2023/05/30 01:42:34;;;;;;;7.60;2.95;;;;;;;16.38;50.87;100433.56;1777612;80;21425;-58
2023/05/30 01:45:54;;;;;;;5.72;2.70;;;;;;;16.38;50.90;100427.17;1792878;80;21354;-57
2023/05/30 01:49:21;;;;;;;4.90;2.85;;;;;;;16.40;50.95;100425.06;1793143;79;21192;-60
2023/05/30 01:52:31;;;;;;;7.67;2.92;;;;;;;16.41;50.98;100422.08;1792903;79;21331;-58
2023/05/30 01:55:36;;;;;;;7.72;3.47;;;;;;;16.46;51.04;100423.41;1799367;79;21848;-59
2023/05/30 01:58:42;;;;;;;6.28;3.22;;;;;;;16.48;51.04;100419.87;1801025;79;21204;-60
2023/05/30 02:01:49;;;;;;;5.00;2.80;;;;;;;16.49;51.08;100422.42;1801176;79;21883;-59
2023/05/30 02:04:55;;;;;;;8.18;3.20;;;;;;;16.54;51.17;100423.20;1768102;81;21872;-58
2023/05/30 02:08:01;;;;;;;5.70;2.80;;;;;;;16.57;51.23;100427.73;1768216;80;21821;-58
2023/05/30 02:11:07;;;;;;;4.33;2.70;;;;;;;16.59;51.17;100423.37;1768228;80;21327;-58
2023/05/30 02:14:16;;;;;;;8.23;3.05;;;;;;;16.60;51.04;100431.48;1770966;79;21808;-59
2023/05/30 02:17:22;;;;;;;4.00;2.62;;;;;;;16.61;51.06;100428.16;1770928;79;21383;-58
2023/05/30 02:20:29;;;;;;;5.65;2.70;;;;;;;16.61;51.04;100426.78;1771534;79;21336;-58
2023/05/30 02:23:37;;;;;;;5.25;2.80;;;;;;;16.63;51.05;100424.14;1768678;80;21386;-58
2023/05/30 02:26:44;;;;;;;5.60;2.92;;;;;;;16.64;51.06;100416.68;1768948;80;21371;-59
2023/05/30 02:29:45;;;;;;;4.30;2.50;;;;;;;16.68;51.08;100417.97;1769387;79;21797;-59
2023/05/30 02:32:51;;;;;;;5.25;2.70;;;;;;;16.71;51.10;100413.39;1773896;79;21367;-58
2023/05/30 02:36:00;;;;;;;7.85;2.85;;;;;;;16.72;51.03;100417.32;1769661;79;21324;-58
2023/05/30 02:39:14;;;;;;;7.62;2.80;;;;;;;16.75;51.05;100414.64;1768759;80;21884;-58
2023/05/30 02:42:19;;;;;;;7.55;3.52;;;;;;;16.80;51.12;100413.47;1768897;80;21383;-58
2023/05/30 02:45:27;;;;;;;3.50;2.25;;;;;;;16.86;51.18;100415.38;1773560;81;21338;-58
2023/05/30 02:48:32;;;;;;;4.05;2.40;;;;;;;16.90;51.19;100417.52;1810228;79;21330;-58
2023/05/30 02:51:39;;;;;;;5.85;2.80;;;;;;;16.96;51.25;100417.17;1801244;79;21840;-58
2023/05/30 02:54:46;;;;;;;7.30;2.90;;;;;;;17.01;51.27;100420.14;1801490;79;21847;-59
2023/05/30 02:57:54;;;;;;;5.10;2.98;;;;;;;17.07;51.29;100416.50;1799860;79;21268;-59
2023/05/30 03:01:10;;;;;;;6.53;2.98;;;;;;;17.13;51.31;100423.92;1801247;79;21188;-58
2023/05/30 03:04:15;;;;;;;7.67;2.65;;;;;;;17.20;51.26;100425.62;1759927;80;21361;-58
2023/05/30 03:07:22;;;;;;;5.28;2.92;;;;;;;17.23;51.15;100422.95;1749690;80;21344;-59
2023/05/30 03:10:28;;;;;;;4.37;2.77;;;;;;;17.25;51.05;100424.97;1746460;80;21392;-57
2023/05/30 03:13:35;;;;;;;9.48;2.95;;;;;;;17.26;51.05;100421.13;1755161;80;21353;-58
2023/05/30 03:16:40;;;;;;;4.58;2.95;;;;;;;17.29;51.03;100426.22;1746483;80;21832;-56
2023/05/30 03:19:47;;;;;;;5.80;3.20;;;;;;;17.26;50.92;100421.98;1713809;82;21209;-55
2023/05/30 03:22:53;;;;;;;3.95;2.70;;;;;;;17.24;50.92;100424.11;1775858;80;22195;-56
2023/05/30 03:25:59;;;;;;;5.50;2.58;;;;;;;17.21;50.87;100412.63;1789745;79;21359;-56
2023/05/30 03:29:07;;;;;;;6.45;2.98;;;;;;;17.18;50.89;100420.84;1769916;79;21972;-57
2023/05/30 03:32:14;;;;;;;5.17;2.90;;;;;;;17.17;50.91;100418.30;1779706;79;21717;-57
2023/05/30 03:35:20;;;;;;;7.35;2.77;;;;;;;17.19;50.98;100423.05;1763462;80;21334;-57
2023/05/30 03:38:24;;;;;;;5.78;2.62;;;;;;;17.24;51.07;100426.87;1774718;81;21334;-57
2023/05/30 03:41:29;;;;;;;6.05;2.75;;;;;;;17.28;51.05;100420.38;1779913;80;21355;-56
2023/05/30 03:44:35;;;;;;;7.28;3.02;;;;;;;17.30;51.05;100414.10;1776796;80;21842;-56
2023/05/30 03:47:40;;;;;;;5.40;2.60;;;;;;;17.34;51.13;100420.36;1785715;79;21384;-56
2023/05/30 03:50:45;;;;;;;4.35;2.90;;;;;;;17.40;51.19;100421.39;1784956;80;21373;-56
2023/05/30 03:53:51;;;;;;;4.55;2.60;;;;;;;17.49;51.29;100414.59;1795755;79;21163;-57
2023/05/30 03:57:00;;;;;;;8.35;3.25;;;;;;;17.61;51.41;100423.89;1811506;79;21356;-55
2023/05/30 04:00:06;;;;;;;7.40;3.12;;;;;;;17.71;51.38;100420.13;1812073;79;21368;-56
2023/05/30 04:03:12;;;;;;;4.87;2.52;;;;;;;17.81;51.42;100428.26;1812199;79;21395;-56
2023/05/30 04:06:19;;;;;;;9.03;3.62;;;;;;;17.90;51.37;100421.38;1812129;79;21893;-56
2023/05/30 04:09:25;;;;;;;6.22;3.00;;;;;;;17.98;51.38;100424.97;1811911;79;21352;-57
2023/05/30 04:12:32;;;;;;;10.32;2.90;;;;;;;18.05;51.39;100421.08;1785265;79;21336;-56
2023/05/30 04:15:37;;;;;;;6.92;3.75;;;;;;;18.15;51.40;100420.06;1786135;79;21304;-56
2023/05/30 04:18:45;;;;;;;6.45;3.55;;;;;;;18.26;51.39;100415.19;1811162;79;21786;-57
2023/05/30 04:21:52;;;;;;;6.22;2.80;;;;;;;18.32;51.35;100421.20;1810332;79;21933;-57
2023/05/30 04:24:57;;;;;;;10.13;2.90;;;;;;;18.39;51.30;100419.80;1811607;79;21347;-57
2023/05/30 04:28:05;;;;;;;7.05;3.00;;;;;;;18.48;51.37;100433.69;1811869;79;21322;-57
2023/05/30 04:31:12;;;;;;;8.98;3.02;;;;;;;18.58;51.37;100422.95;1781946;80;21342;-57
2023/05/30 04:34:19;;;;;;;6.28;3.17;;;;;;;18.66;51.24;100420.72;1812679;78;21870;-57
2023/05/30 04:37:27;;;;;;;9.10;3.08;;;;;;;18.68;51.20;100419.13;1777304;79;21746;-56
2023/05/30 04:40:34;;;;;;;11.70;3.70;;;;;;;18.69;51.16;100418.05;1755476;81;21212;-56
2023/05/30 04:43:41;;;;;;;7.45;3.42;;;;;;;18.70;51.19;100416.44;1777215;80;21259;-56
2023/05/30 04:46:49;;;;;;;8.55;3.75;;;;;;;18.79;51.27;100419.22;1787282;79;21378;-57
2023/05/30 04:50:00;;;;;;;8.98;3.87;;;;;;;18.91;51.34;100420.19;1787247;79;21709;-57
2023/05/30 04:53:05;;;;;;;9.23;3.85;;;;;;;19.03;51.34;100421.64;1760287;81;21768;-57
2023/05/30 04:56:13;;;;;;;11.25;3.77;;;;;;;19.14;51.35;100418.96;1760109;81;21213;-56
2023/05/30 04:59:20;;;;;;;8.13;4.60;;;;;;;19.24;51.31;100424.84;1783001;79;21227;-56
2023/05/30 05:02:31;;;;;;;7.97;4.25;;;;;;;19.31;51.27;100427.01;1782243;79;21275;-57
2023/05/30 05:05:37;;;;;;;9.98;3.90;;;;;;;19.39;51.24;100426.41;1780352;79;21371;-56
2023/05/30 05:08:52;;;;;;;11.22;4.28;;;;;;;19.41;51.14;100432.58;1773511;78;21244;-56
2023/05/30 05:11:57;;;;;;;9.75;4.53;;;;;;;19.46;51.22;100438.26;1783420;79;21339;-56
2023/05/30 05:15:05;;;;;;;10.93;4.55;;;;;;;19.53;51.20;100437.13;1809978;79;21358;-57
2023/05/30 05:18:11;;;;;;;7.78;4.37;;;;;;;19.57;51.16;100436.13;1740510;81;21919;-57
2023/05/30 05:21:18;;;;;;;13.98;5.53;;;;;;;19.54;51.11;100434.64;1762490;79;21223;-56
2023/05/30 05:24:26;;;;;;;10.68;5.37;;;;;;;19.57;51.17;100438.34;1760907;79;21237;-57
2023/05/30 05:27:35;;;;;;;12.85;5.08;;;;;;;19.68;51.31;100443.67;1761387;79;21301;-58
2023/05/30 05:30:42;;;;;;;11.60;5.12;;;;;;;19.76;51.23;100447.49;1739065;81;21240;-57
2023/05/30 05:33:53;;;;;;;10.48;4.85;;;;;;;19.85;51.21;100446.11;1777792;78;21374;-59
2023/05/30 05:37:00;;;;;;;27.20;5.15;;;;;;;19.91;51.16;100445.16;1814695;77;21361;-57
2023/05/30 05:40:08;;;;;;;12.40;5.40;;;;;;;20.01;51.28;100432.95;1794536;79;21230;-57
2023/05/30 05:43:15;;;;;;;11.53;5.03;;;;;;;20.23;51.46;100441.10;1778376;79;21220;-58
2023/05/30 05:46:21;;;;;;;16.52;4.78;;;;;;;20.45;51.50;100429.73;1797812;78;21221;-56
2023/05/30 05:49:29;;;;;;;12.25;4.00;;;;;;;20.61;51.42;100424.87;1785681;79;21991;-56
2023/05/30 05:52:34;;;;;;;11.63;4.45;;;;;;;20.78;51.26;100430.02;1758376;81;21767;-57
2023/05/30 05:55:39;;;;;;;9.08;4.28;;;;;;;20.93;51.14;100433.72;1756823;80;21209;-58
2023/05/30 05:58:46;;;;;;;8.00;4.28;;;;;;;21.02;51.01;100426.73;1769001;79;21766;-61
2023/05/30 06:01:55;;;;;;;8.13;3.87;;;;;;;21.15;51.00;100430.13;1760899;80;22060;-58
2023/05/30 06:05:02;;;;;;;7.50;3.83;;;;;;;21.33;51.08;100432.75;1743946;81;21272;-57
2023/05/30 06:08:11;;;;;;;9.75;3.80;;;;;;;21.48;50.89;100424.74;1743082;81;21935;-58
2023/05/30 06:11:17;;;;;;;12.45;4.35;;;;;;;21.55;50.80;100430.18;1755334;80;21236;-58
2023/05/30 06:14:26;;;;;;;13.03;4.28;;;;;;;21.70;50.73;100431.88;1762449;81;21174;-59
2023/05/30 06:17:34;;;;;;;10.43;4.00;;;;;;;21.76;50.60;100440.14;1757287;80;21203;-57
2023/05/30 06:20:40;;;;;;;14.75;4.33;;;;;;;21.85;50.55;100433.06;1767052;80;21355;-58
2023/05/30 06:23:47;;;;;;;11.78;4.17;;;;;;;21.91;50.40;100432.64;1762714;79;21224;-58
2023/05/30 06:26:52;;;;;;;7.53;4.03;;;;;;;21.89;50.23;100427.31;1768007;80;21952;-58
2023/05/30 06:30:01;;;;;;;7.15;3.80;;;;;;;21.99;50.41;100431.67;1767333;79;21868;-57
2023/05/30 06:33:11;;;;;;;9.40;4.28;;;;;;;22.15;50.39;100435.06;1734288;80;21893;-58
2023/05/30 06:36:17;;;;;;;9.93;5.28;;;;;;;22.12;50.13;100433.31;1761917;79;21382;-56
2023/05/30 06:39:24;;;;;;;8.93;4.62;;;;;;;22.17;50.28;100437.59;1766264;79;21342;-58
2023/05/30 06:42:29;;;;;;;11.22;4.17;;;;;;;22.32;50.39;100432.32;1770696;79;21359;-58
2023/05/30 06:45:41;;;;;;;11.22;4.03;;;;;;;22.48;50.32;100423.67;1782559;79;21271;-55
2023/05/30 06:48:46;;;;;;;13.80;4.47;;;;;;;22.49;50.11;100425.34;1768785;79;21199;-58
2023/05/30 06:51:52;;;;;;;5.95;3.85;;;;;;;22.48;50.11;100421.73;1776252;79;21239;-58
2023/05/30 06:54:59;;;;;;;12.35;4.28;;;;;;;22.51;50.06;100416.19;1733356;82;21213;-57
2023/05/30 06:58:03;;;;;;;6.08;3.77;;;;;;;22.40;49.94;100417.96;1797140;77;21192;-57
2023/05/30 07:01:11;;;;;;;13.60;3.45;;;;;;;22.50;50.17;100414.51;1784319;79;21368;-59
2023/05/30 07:04:17;;;;;;;16.05;4.33;;;;;;;22.73;50.34;100412.42;1781692;79;21234;-59
2023/05/30 07:07:24;;;;;;;9.03;4.78;;;;;;;22.82;50.13;100415.61;1797580;80;21714;-58
2023/05/30 07:10:31;;;;;;;14.38;3.40;;;;;;;22.81;49.99;100420.37;1745120;80;21209;-59
2023/05/30 07:13:36;;;;;;;5.05;3.42;;;;;;;22.92;50.19;100424.16;1733525;82;21490;-59
2023/05/30 07:16:41;;;;;;;14.83;3.87;;;;;;;22.90;50.01;100435.59;1797203;79;21205;-58
2023/05/30 07:19:48;;;;;;;12.23;4.10;;;;;;;22.89;49.88;100428.87;1758619;80;21205;-58
2023/05/30 07:22:54;;;;;;;12.40;3.85;;;;;;;22.80;49.70;100440.17;1756429;80;22155;-57
2023/05/30 07:26:02;;;;;;;12.05;4.62;;;;;;;22.86;49.90;100435.81;1754903;80;21430;-57
2023/05/30 07:29:09;;;;;;;10.13;4.62;;;;;;;22.92;49.91;100435.33;1750867;79;21397;-59
2023/05/30 07:32:16;;;;;;;6.55;3.65;;;;;;;22.96;49.91;100430.95;1754053;79;21224;-58
2023/05/30 07:35:22;;;;;;;8.45;4.10;;;;;;;23.01;49.93;100437.98;1759040;80;21268;-57
2023/05/30 07:38:28;;;;;;;8.55;4.45;;;;;;;23.11;50.03;100429.77;1747380;80;21303;-58
2023/05/30 07:41:34;;;;;;;6.20;3.80;;;;;;;23.17;49.97;100430.99;1756281;79;21235;-57
2023/05/30 07:44:40;;;;;;;14.10;4.30;;;;;;;23.15;49.83;100429.56;1758650;80;21276;-58
2023/05/30 07:47:48;;;;;;;10.88;4.53;;;;;;;23.22;49.97;100427.42;1756883;80;21264;-59
2023/05/30 07:50:54;;;;;;;6.65;4.30;;;;;;;23.20;50.01;100431.88;1763571;79;21200;-58
2023/05/30 07:54:00;;;;;;;9.35;4.22;;;;;;;23.24;50.12;100423.83;1751893;79;21226;-58
2023/05/30 07:57:19;;;;;;;9.30;4.28;;;;;;;23.36;50.30;100430.17;1762220;79;21342;-58
2023/05/30 08:00:36;;;;;;;7.37;4.47;;;;;;;23.19;49.99;100422.35;1742768;81;21283;-58
2023/05/30 08:07:45;;;;;;;11.93;4.62;;;;;;;23.03;50.34;100419.89;1715997;81;21240;-58
2023/05/30 08:10:51;;;;;;;11.10;3.92;;;;;;;23.11;50.54;100426.98;1689867;82;21215;-56
2023/05/30 08:14:12;;;;;;;8.68;3.92;;;;;;;23.19;50.58;100413.97;1687782;83;21799;-59
2023/05/30 08:17:16;;;;;;;10.28;3.55;;;;;;;23.21;50.51;100418.19;1687935;83;21223;-58
2023/05/30 08:20:30;;;;;;;10.85;4.03;;;;;;;23.31;50.71;100414.19;1680576;83;21277;-59
2023/05/30 08:23:42;;;;;;;12.23;3.65;;;;;;;23.44;50.91;100422.20;1619452;86;21290;-58
2023/05/30 08:26:47;;;;;;;15.08;4.35;;;;;;;23.60;50.92;100421.84;1627613;86;21367;-58
2023/05/30 08:29:40;;;;;;;9.75;3.58;;;;;;;23.73;50.88;100423.39;1647943;86;21264;-57
2023/05/30 08:32:53;;;;;;;7.92;3.35;;;;;;;23.87;50.96;100424.14;1660781;85;21272;-57
2023/05/30 08:36:17;;;;;;;7.12;3.90;;;;;;;24.01;50.88;100423.20;1697195;84;21236;-59
2023/05/30 08:39:46;;;;;;;7.30;3.92;;;;;;;24.14;50.89;100421.39;1667258;84;21373;-58
2023/05/30 08:42:55;;;;;;;9.73;5.05;;;;;;;24.25;50.84;100417.59;1678751;84;21290;-58
2023/05/30 08:46:02;;;;;;;10.48;4.25;;;;;;;24.38;50.91;100420.83;1688617;84;21203;-60
2023/05/30 08:49:08;;;;;;;7.25;3.83;;;;;;;24.47;50.75;100412.23;1682082;83;21196;-58
2023/05/30 08:52:16;;;;;;;9.35;3.72;;;;;;;24.40;50.67;100406.02;1663561;84;21224;-60
2023/05/30 08:55:28;;;;;;;9.73;4.45;;;;;;;24.32;50.67;100409.84;1655088;86;21558;-59
2023/05/30 08:58:43;;;;;;;10.40;3.75;;;;;;;24.27;50.73;100417.64;1655279;84;21517;-59
2023/05/30 09:01:50;;;;;;;6.20;3.58;;;;;;;24.33;51.05;100420.77;1656088;84;21787;-59
2023/05/30 09:04:59;;;;;;;8.03;3.98;;;;;;;24.34;50.96;100418.25;1680280;84;21239;-60
2023/05/30 09:08:05;;;;;;;5.97;3.72;;;;;;;24.42;51.12;100420.58;1733273;79;21374;-59
2023/05/30 09:11:11;;;;;;;6.42;3.70;;;;;;;24.42;51.03;100433.75;1748340;80;21235;-59
2023/05/30 09:14:16;;;;;;;9.40;3.40;;;;;;;24.31;50.88;100429.98;1721651;82;21887;-59
2023/05/30 09:17:22;;;;;;;7.00;3.70;;;;;;;24.27;51.03;100423.78;1718781;82;21197;-58
2023/05/30 09:20:28;;;;;;;6.37;3.95;;;;;;;24.47;51.29;100416.43;1710934;84;21252;-57
2023/05/30 09:23:36;;;;;;;5.90;3.62;;;;;;;24.76;51.50;100414.20;1711674;84;21768;-58
2023/05/30 09:26:42;;;;;;;8.33;3.75;;;;;;;25.20;51.57;100407.81;1711766;83;21243;-60
2023/05/30 09:29:51;;;;;;;9.25;3.47;;;;;;;25.36;51.14;100415.20;1732737;82;21386;-58
2023/05/30 09:33:12;;;;;;;9.90;3.60;;;;;;;25.24;50.99;100415.95;1741078;81;21316;-57
2023/05/30 09:36:28;;;;;;;6.65;3.50;;;;;;;25.23;50.94;100410.89;1753265;79;21770;-54
2023/05/30 09:39:35;;;;;;;5.80;4.03;;;;;;;24.98;50.65;100417.19;1741853;81;21240;-53
2023/05/30 09:42:48;;;;;;;5.17;3.40;;;;;;;24.93;50.91;100421.34;1773562;81;21866;-55
2023/05/30 09:45:55;;;;;;;7.58;4.47;;;;;;;24.82;50.70;100418.17;1758342;81;21424;-54
2023/05/30 09:49:02;;;;;;;5.97;3.37;;;;;;;24.56;50.66;100407.83;1748421;81;21732;-55
2023/05/30 09:52:07;;;;;;;8.28;4.10;;;;;;;24.46;50.80;100409.16;1743484;82;21216;-55
2023/05/30 09:55:16;;;;;;;6.17;3.50;;;;;;;24.62;51.22;100414.33;1763527;80;21740;-52
2023/05/30 09:58:28;;;;;;;7.08;3.35;;;;;;;24.91;51.36;100412.94;1716938;82;21355;-53
2023/05/30 10:01:45;;;;;;;9.48;3.70;;;;;;;24.92;50.87;100409.86;1749919;79;21460;-54
2023/05/30 10:04:54;;;;;;;9.05;3.47;;;;;;;25.03;51.08;100406.02;1733096;81;21221;-60
2023/05/30 10:08:04;;;;;;;7.67;3.58;;;;;;;25.19;50.90;100415.91;1734923;82;21756;-58
2023/05/30 10:11:10;;;;;;;4.95;3.27;;;;;;;25.10;50.76;100406.33;1752609;79;21219;-59
2023/05/30 10:14:16;;;;;;;7.33;3.40;;;;;;;25.17;50.90;100409.72;1735614;81;21185;-58
2023/05/30 10:17:23;;;;;;;9.08;3.45;;;;;;;25.05;50.54;100410.77;1761669;81;21339;-59
2023/05/30 10:20:32;;;;;;;8.65;4.20;;;;;;;24.86;50.42;100410.09;1718115;81;21359;-57
2023/05/30 10:23:39;;;;;;;7.45;4.42;;;;;;;24.82;50.68;100401.38;1753319;81;21251;-57
2023/05/30 10:26:49;;;;;;;7.95;4.45;;;;;;;25.03;50.89;100402.36;1732812;81;21224;-57
2023/05/30 10:29:57;;;;;;;6.33;4.33;;;;;;;25.13;50.65;100405.79;1754262;81;21943;-58
2023/05/30 10:33:18;;;;;;;6.78;3.92;;;;;;;25.15;50.54;100397.97;1747828;80;21422;-58
2023/05/30 10:36:25;;;;;;;10.18;3.92;;;;;;;25.34;50.76;100392.23;1721311;80;21245;-59
2023/05/30 10:39:59;;;;;;;9.93;3.83;;;;;;;25.69;50.81;100400.81;1721913;81;21708;-56
2023/05/30 10:43:43;;;;;;;9.38;4.00;;;;;;;26.03;50.93;100394.51;1722695;81;21223;-56
2023/05/30 10:47:11;;;;;;;10.23;3.77;;;;;;;26.31;50.66;100386.13;1703493;82;21264;-57
2023/05/30 10:50:24;;;;;;;8.20;4.15;;;;;;;26.41;50.41;100386.14;1733318;81;21815;-55
2023/05/30 10:53:31;;;;;;;11.05;4.15;;;;;;;26.40;50.12;100372.66;1704928;82;21217;-56
2023/05/30 10:56:49;;;;;;;7.50;4.37;;;;;;;26.45;50.18;100381.64;1735798;81;21873;-54
2023/05/30 10:59:54;;;;;;;8.78;4.15;;;;;;;26.45;49.83;100373.22;1728230;82;21215;-55
2023/05/30 11:03:02;;;;;;;7.28;4.35;;;;;;;26.33;49.83;100369.85;1733831;82;21253;-56
2023/05/30 11:06:08;;;;;;;9.30;4.90;;;;;;;26.36;49.84;100368.73;1722745;82;21602;-55
2023/05/30 11:09:17;;;;;;;5.78;4.45;;;;;;;26.24;49.41;100377.15;1713287;82;21857;-55
2023/05/30 11:12:30;;;;;;;8.48;4.95;;;;;;;25.67;49.06;100376.40;1732554;81;21361;-57
2023/05/30 11:15:53;;;;;;;9.80;5.12;;;;;;;25.24;49.25;100386.52;1684117;82;21185;-55
2023/05/30 11:19:00;;;;;;;7.55;4.53;;;;;;;25.18;49.70;100382.01;1732988;81;21741;-56
2023/05/30 11:22:23;;;;;;;9.48;4.60;;;;;;;25.26;49.83;100394.93;1693956;84;21202;-56
2023/05/30 11:25:32;;;;;;;7.28;4.58;;;;;;;25.40;49.90;100384.98;1704876;83;21223;-56
2023/05/30 11:28:43;;;;;;;10.23;4.80;;;;;;;25.55;49.78;100389.23;1708711;82;21186;-55
2023/05/30 11:31:55;;;;;;;9.43;4.42;;;;;;;25.52;49.75;100383.33;1729572;81;21374;-58
2023/05/30 11:35:09;;;;;;;16.93;4.65;;;;;;;25.55;49.82;100379.97;1687851;82;21241;-57
2023/05/30 11:38:16;;;;;;;6.33;3.90;;;;;;;25.37;49.68;100381.87;1730155;79;21953;-55
2023/05/30 11:41:23;;;;;;;12.78;3.87;;;;;;;25.31;49.62;100381.53;1699239;82;21245;-56
2023/05/30 11:44:29;;;;;;;12.43;4.22;;;;;;;25.13;49.39;100377.77;1719183;82;21185;-56
2023/05/30 11:47:35;;;;;;;5.92;3.75;;;;;;;25.03;49.59;100379.41;1707491;82;21203;-55
2023/05/30 11:50:50;;;;;;;7.53;3.70;;;;;;;25.14;49.74;100378.05;1692603;82;21267;-56
2023/05/30 11:53:58;;;;;;;4.80;3.52;;;;;;;25.17;49.65;100373.30;1708218;82;21356;-56
2023/05/30 11:57:11;;;;;;;8.65;4.12;;;;;;;25.27;49.54;100377.56;1724529;81;21199;-56
2023/05/30 12:00:18;;;;;;;5.17;3.22;;;;;;;25.22;49.38;100375.58;1702479;82;21220;-55
2023/05/30 12:03:23;;;;;;;11.90;4.17;;;;;;;25.25;49.27;100376.98;1723342;82;21804;-56
2023/05/30 12:06:29;;;;;;;6.15;3.72;;;;;;;25.27;49.25;100378.97;1697843;83;21252;-56
2023/05/30 12:09:38;;;;;;;6.22;3.65;;;;;;;25.36;49.28;100365.59;1718306;82;21194;-55
2023/05/30 12:12:47;;;;;;;5.90;3.60;;;;;;;25.42;49.33;100363.68;1711139;82;21971;-55
2023/05/30 12:15:55;;;;;;;6.83;3.83;;;;;;;25.60;49.33;100375.80;1724436;81;21803;-56
2023/05/30 12:19:05;;;;;;;9.83;3.95;;;;;;;25.52;49.07;100372.97;1689461;83;21268;-56
2023/05/30 12:22:11;;;;;;;6.65;3.52;;;;;;;25.61;49.32;100368.51;1719903;81;21748;-57
2023/05/30 12:25:17;;;;;;;8.48;4.10;;;;;;;25.75;49.15;100371.08;1706037;81;21583;-56
2023/05/30 12:28:23;;;;;;;8.78;4.15;;;;;;;25.70;48.99;100362.67;1678968;83;22001;-56
2023/05/30 12:31:33;;;;;;;9.40;3.83;;;;;;;25.80;49.12;100357.66;1708519;82;21220;-59
2023/05/30 12:34:52;;;;;;;9.38;4.20;;;;;;;25.90;49.02;100368.34;1693102;84;21845;-57
2023/05/30 12:38:05;;;;;;;7.87;3.92;;;;;;;25.86;48.77;100364.97;1710974;80;21210;-57
2023/05/30 12:41:19;;;;;;;6.97;3.70;;;;;;;25.88;48.77;100366.91;1732891;80;21251;-56
2023/05/30 12:44:13;;;;;;;7.67;3.92;;;;;;;25.79;48.51;100362.97;1760178;81;21808;-56
2023/05/30 12:47:03;;;;;;;8.98;3.40;;;;;;;25.54;48.50;100366.53;1745973;79;21208;-56
2023/05/30 12:49:55;;;;;;;5.75;3.22;;;;;;;25.58;48.75;100371.86;1720991;81;21612;-56
2023/05/30 12:52:42;;;;;;;12.25;5.65;;;;;;;25.58;48.72;100373.27;1728427;81;21748;-55
2023/05/30 12:55:35;;;;;;;8.55;3.60;;;;;;;25.63;48.80;100365.42;1731155;80;21192;-56
2023/05/30 12:58:22;;;;;;;7.70;5.22;;;;;;;25.68;48.74;100369.66;1751997;79;21526;-55
2023/05/30 13:01:19;;;;;;;6.83;3.62;;;;;;;25.72;48.81;100368.83;1750699;81;21196;-55
2023/05/30 13:04:05;;;;;;;7.78;3.98;;;;;;;25.75;48.73;100368.86;1733236;81;21750;-55
2023/05/30 13:07:00;;;;;;;6.80;3.35;;;;;;;25.83;48.81;100365.52;1735004;81;21634;-56
2023/05/30 13:09:48;;;;;;;6.72;3.67;;;;;;;25.91;48.81;100370.59;1725621;81;21216;-57
2023/05/30 13:12:41;;;;;;;9.15;3.58;;;;;;;25.93;48.75;100369.19;1724989;81;21180;-55
2023/05/30 13:15:47;;;;;;;6.62;3.50;;;;;;;25.93;48.66;100364.98;1739318;79;21254;-57
2023/05/30 13:18:53;;;;;;;6.30;3.77;;;;;;;25.93;48.58;100367.78;1719850;82;21879;-56
2023/05/30 13:22:00;;;;;;;7.40;3.42;;;;;;;25.96;48.55;100371.43;1724585;81;21816;-55
2023/05/30 13:25:07;;;;;;;5.62;4.20;;;;;;;25.97;48.52;100373.69;1720958;81;21208;-55
2023/05/30 13:28:16;;;;;;;8.93;4.12;;;;;;;26.11;48.66;100373.47;1732643;80;21574;-54
2023/05/30 13:31:27;;;;;;;8.95;4.55;;;;;;;26.15;48.50;100372.63;1731087;81;21236;-55
2023/05/30 13:34:34;;;;;;;5.70;3.40;;;;;;;26.04;48.30;100371.48;1730991;80;21553;-56
2023/05/30 13:37:41;;;;;;;7.50;3.35;;;;;;;26.17;48.60;100376.56;1719218;82;21385;-52
2023/05/30 13:40:47;;;;;;;10.00;4.45;;;;;;;26.43;48.73;100379.70;1722897;81;21233;-56
2023/05/30 13:43:55;;;;;;;5.62;3.58;;;;;;;26.65;48.57;100380.30;1740782;81;21192;-55
2023/05/30 13:47:02;;;;;;;7.35;3.70;;;;;;;26.75;48.51;100376.06;1733210;82;21793;-57
2023/05/30 13:50:09;;;;;;;4.50;3.50;;;;;;;26.84;48.25;100372.98;1732595;81;22007;-56
2023/05/30 13:53:14;;;;;;;6.22;3.62;;;;;;;26.91;48.11;100376.33;1760475;80;21390;-56
2023/05/30 13:56:25;;;;;;;6.87;3.50;;;;;;;26.85;47.84;100381.68;1721837;81;21197;-56
2023/05/30 13:59:33;;;;;;;8.43;3.80;;;;;;;26.85;47.86;100376.06;1745193;81;21790;-56
2023/05/30 14:02:40;;;;;;;8.25;4.35;;;;;;;27.00;47.78;100383.08;1730146;81;21232;-60
2023/05/30 14:05:49;;;;;;;7.90;3.85;;;;;;;26.90;47.44;100378.87;1709065;83;21785;-60
2023/05/30 14:08:55;;;;;;;8.80;3.65;;;;;;;26.93;47.62;100377.45;1734421;79;21506;-58
2023/05/30 14:12:00;;;;;;;5.67;3.70;;;;;;;27.03;47.75;100381.11;1709291;84;21240;-59
2023/05/30 14:15:01;;;;;;;5.40;3.60;;;;;;;27.05;47.55;100381.64;1711026;83;21900;-59
2023/05/30 14:17:56;;;;;;;10.90;4.50;;;;;;;27.04;47.51;100387.00;1723315;83;21547;-60
2023/05/30 14:20:42;;;;;;;4.83;3.67;;;;;;;27.09;47.62;100380.52;1723903;83;21765;-61
2023/05/30 14:23:36;;;;;;;7.65;4.22;;;;;;;27.24;47.68;100385.53;1723071;83;21733;-60
2023/05/30 14:26:42;;;;;;;7.70;3.52;;;;;;;27.28;47.48;100383.03;1734106;80;21285;-60
2023/05/30 14:29:48;;;;;;;8.20;3.58;;;;;;;27.28;47.40;100379.67;1724458;81;21256;-60
2023/05/30 14:32:56;;;;;;;6.03;3.92;;;;;;;27.30;47.40;100374.61;1756571;80;21186;-60
2023/05/30 14:36:02;;;;;;;5.62;3.62;;;;;;;27.38;47.54;100378.25;1749614;80;21292;-60